Three Creek, Idaho
Current Conditions -  °F | °C
As of 5:53 PM on Saturday 25 Oct 2014 (Local Time) from KTWF Reporting Station
Haze Haze  
Wind Chill: 76°   Ceiling: 2900
Heat Index: 76°   Visibility: 6mi
Dew Point: 26°   Wind: 14mph
Humidity: 16%   Direction: 220°SW
Pressure: 29.8"   Gusts: 24mph
Location:  42.227°N, 114.616°W
Report Text: KTWF 252353Z AUTO 22012G21KT 6SM HZ OVC029 24/M03 A2980 RMK AO2 SLP038 60000 T02441033 10256 20239 58013
Loading
Personal Weather Stations






























Interactive Weather Map
Tropical Storm Tracking
New forecast layout! Learn more

10-Day Weather Forecast

Advertisements
Track Severe Weather on mobile